createdAt,value
2023-12-28T00:00:10.479Z,990.92
2023-12-28T00:00:36.732Z,990.72
2023-12-28T00:00:57.048Z,990.72
2023-12-28T00:01:29.449Z,990.72
2023-12-28T00:02:00.303Z,990.92
2023-12-28T00:02:32.986Z,990.92
2023-12-28T00:03:04.664Z,990.92
2023-12-28T00:03:36.878Z,990.92
2023-12-28T00:04:08.382Z,990.72
2023-12-28T00:04:37.896Z,990.72
2023-12-28T00:04:56.320Z,990.72
2023-12-28T00:05:29.475Z,990.72
2023-12-28T00:06:00.430Z,990.72
2023-12-28T00:06:32.992Z,990.72
2023-12-28T00:07:04.502Z,990.82
2023-12-28T00:07:36.393Z,990.82
2023-12-28T00:08:08.230Z,990.72
2023-12-28T00:08:36.568Z,990.92
2023-12-28T00:09:00.790Z,990.92
2023-12-28T00:09:28.793Z,990.92
2023-12-28T00:10:01.549Z,990.92
2023-12-28T00:10:33.002Z,990.92
2023-12-28T00:11:04.577Z,990.92
2023-12-28T00:11:37.009Z,990.92
2023-12-28T00:12:09.743Z,990.72
2023-12-28T00:12:40.683Z,990.92
2023-12-28T00:12:57.660Z,990.92
2023-12-28T00:13:28.693Z,990.92
2023-12-28T00:14:00.565Z,990.72
2023-12-28T00:14:33.175Z,990.72
2023-12-28T00:15:07.339Z,990.82
2023-12-28T00:15:36.566Z,990.82
2023-12-28T00:16:08.434Z,991.02
2023-12-28T00:16:37.246Z,991.02
2023-12-28T00:16:56.851Z,991.02
2023-12-28T00:17:28.496Z,991.02
2023-12-28T00:18:00.902Z,990.72
2023-12-28T00:18:32.985Z,990.72
2023-12-28T00:19:04.537Z,990.82
2023-12-28T00:19:36.389Z,990.82
2023-12-28T00:20:09.900Z,990.82
2023-12-28T00:20:36.755Z,991.13
2023-12-28T00:20:58.270Z,991.13
2023-12-28T00:21:28.603Z,991.13
2023-12-28T00:22:00.413Z,990.72
2023-12-28T00:22:33.023Z,990.72
2023-12-28T00:23:04.472Z,990.82
2023-12-28T00:23:36.584Z,990.82
2023-12-28T00:24:08.588Z,990.82
2023-12-28T00:24:36.810Z,990.92
2023-12-28T00:24:56.898Z,990.92
2023-12-28T00:25:29.032Z,990.92
2023-12-28T00:26:00.442Z,990.72
2023-12-28T00:26:32.787Z,990.72
2023-12-28T00:27:05.519Z,990.62
2023-12-28T00:27:36.800Z,990.62
2023-12-28T00:28:08.622Z,990.62
2023-12-28T00:28:37.052Z,990.72
2023-12-28T00:28:56.915Z,990.72
2023-12-28T00:29:28.375Z,990.72
2023-12-28T00:30:02.109Z,990.82
2023-12-28T00:30:33.309Z,990.82
2023-12-28T00:31:04.505Z,991.02
2023-12-28T00:31:36.524Z,991.02
2023-12-28T00:32:08.517Z,990.92
2023-12-28T00:32:37.023Z,990.82
2023-12-28T00:32:57.006Z,990.82
2023-12-28T00:33:28.562Z,990.82
2023-12-28T00:34:01.171Z,990.92
2023-12-28T00:34:33.346Z,990.92
2023-12-28T00:35:06.215Z,990.82
2023-12-28T00:35:37.039Z,990.82
2023-12-28T00:36:08.299Z,990.72
2023-12-28T00:36:37.710Z,990.92
2023-12-28T00:36:57.859Z,990.92
2023-12-28T00:37:29.484Z,990.92
2023-12-28T00:38:01.174Z,990.82
2023-12-28T00:38:33.488Z,990.82
2023-12-28T00:39:04.631Z,990.82
2023-12-28T00:39:37.240Z,990.82
2023-12-28T00:40:09.789Z,990.92
2023-12-28T00:40:37.477Z,991.02
2023-12-28T00:40:57.060Z,991.02
2023-12-28T00:41:28.416Z,991.02
2023-12-28T00:42:00.385Z,990.92
2023-12-28T00:42:32.868Z,990.92
2023-12-28T00:43:04.609Z,990.92
2023-12-28T00:43:37.153Z,990.92
2023-12-28T00:44:08.517Z,990.72
2023-12-28T00:44:37.404Z,990.72
2023-12-28T00:44:56.866Z,990.72
2023-12-28T00:45:30.600Z,990.72
2023-12-28T00:46:00.425Z,990.62
2023-12-28T00:46:33.664Z,990.62
2023-12-28T00:47:04.552Z,990.62
2023-12-28T00:47:37.046Z,990.62
2023-12-28T00:48:08.526Z,990.72
2023-12-28T00:48:37.665Z,990.62
2023-12-28T00:48:56.592Z,990.62
2023-12-28T00:49:28.594Z,990.62
2023-12-28T00:50:01.640Z,990.72
2023-12-28T00:50:33.032Z,990.72
2023-12-28T00:51:04.682Z,990.72
2023-12-28T00:51:37.155Z,990.72
2023-12-28T00:52:08.350Z,991.02
2023-12-28T00:52:37.179Z,990.82
2023-12-28T00:52:56.552Z,990.82
2023-12-28T00:53:28.529Z,990.82
2023-12-28T00:54:00.656Z,990.82
2023-12-28T00:54:32.947Z,990.82
2023-12-28T00:55:06.582Z,990.72
2023-12-28T00:55:37.222Z,990.72
2023-12-28T00:56:08.305Z,990.62
2023-12-28T00:56:37.731Z,990.62
2023-12-28T00:56:56.622Z,990.62
2023-12-28T00:57:28.341Z,990.62
2023-12-28T00:58:00.948Z,990.52
2023-12-28T00:58:33.020Z,990.52
2023-12-28T00:59:04.589Z,990.72
2023-12-28T00:59:37.159Z,990.72
2023-12-28T01:00:10.409Z,990.82
2023-12-28T01:00:37.146Z,990.62
2023-12-28T01:00:57.198Z,990.62
2023-12-28T01:01:28.474Z,990.62
2023-12-28T01:02:00.642Z,990.72
2023-12-28T01:02:32.924Z,990.72
2023-12-28T01:03:04.668Z,990.52
2023-12-28T01:03:37.539Z,990.52
2023-12-28T01:04:08.731Z,990.72
2023-12-28T01:04:37.196Z,990.72
2023-12-28T01:04:57.164Z,990.72
2023-12-28T01:05:29.135Z,990.72
2023-12-28T01:06:01.329Z,990.62
2023-12-28T01:06:40.207Z,990.62
2023-12-28T01:07:05.172Z,990.62
2023-12-28T01:07:37.050Z,990.62
2023-12-28T01:08:08.622Z,990.62
2023-12-28T01:08:37.655Z,991.13
2023-12-28T01:08:56.610Z,991.13
2023-12-28T01:09:28.662Z,991.13
2023-12-28T01:10:01.494Z,990.82
2023-12-28T01:10:33.139Z,990.82
2023-12-28T01:11:04.681Z,990.72
2023-12-28T01:11:36.694Z,990.72
2023-12-28T01:12:09.540Z,990.92
2023-12-28T01:12:36.772Z,991.02
2023-12-28T01:12:56.754Z,991.02
2023-12-28T01:13:28.353Z,991.02
2023-12-28T01:14:00.486Z,990.82
2023-12-28T01:14:32.760Z,990.82
2023-12-28T01:15:07.261Z,991.13
2023-12-28T01:15:40.188Z,991.13
2023-12-28T01:16:10.226Z,990.92
2023-12-28T01:16:37.812Z,991.02
2023-12-28T01:16:56.518Z,991.02
2023-12-28T01:17:28.311Z,991.02
2023-12-28T01:18:01.139Z,991.13
2023-12-28T01:18:32.713Z,991.13
2023-12-28T01:19:04.721Z,991.02
2023-12-28T01:19:36.539Z,991.02
2023-12-28T01:20:10.960Z,991.13
2023-12-28T01:20:38.558Z,991.13
2023-12-28T01:20:57.026Z,991.13
2023-12-28T01:21:28.315Z,991.13
2023-12-28T01:22:00.420Z,991.13
2023-12-28T01:22:32.713Z,991.13
2023-12-28T01:23:04.513Z,991.02
2023-12-28T01:23:36.460Z,991.02
2023-12-28T01:24:08.329Z,991.02
2023-12-28T01:24:36.769Z,990.92
2023-12-28T01:24:56.487Z,990.92
2023-12-28T01:25:29.223Z,990.92
2023-12-28T01:26:00.722Z,991.13
2023-12-28T01:26:32.586Z,991.13
2023-12-28T01:27:04.574Z,991.13
2023-12-28T01:27:38.791Z,991.13
2023-12-28T01:28:10.256Z,991.13
2023-12-28T01:28:37.663Z,991.23
2023-12-28T01:28:56.666Z,991.23
2023-12-28T01:29:28.786Z,991.23
2023-12-28T01:30:02.328Z,991.23
2023-12-28T01:30:33.576Z,991.23
2023-12-28T01:31:04.783Z,991.33
2023-12-28T01:31:37.096Z,991.33
2023-12-28T01:32:08.383Z,991.23
2023-12-28T01:32:37.614Z,991.13
2023-12-28T01:32:56.458Z,991.13
2023-12-28T01:33:28.706Z,991.13
2023-12-28T01:34:00.812Z,991.23
2023-12-28T01:34:33.379Z,991.23
2023-12-28T01:35:06.217Z,991.13
2023-12-28T01:35:36.399Z,991.13
2023-12-28T01:36:08.452Z,991.23
2023-12-28T01:36:37.181Z,991.13
2023-12-28T01:36:57.982Z,991.13
2023-12-28T01:37:28.694Z,991.13
2023-12-28T01:38:01.925Z,990.92
2023-12-28T01:38:32.842Z,990.92
2023-12-28T01:39:04.413Z,991.02
2023-12-28T01:39:36.441Z,991.02
2023-12-28T01:40:09.743Z,991.13
2023-12-28T01:40:37.028Z,991.13
2023-12-28T01:40:57.526Z,991.13
2023-12-28T01:41:28.430Z,991.13
2023-12-28T01:42:00.485Z,991.23
2023-12-28T01:42:32.834Z,991.23
2023-12-28T01:43:04.510Z,991.13
2023-12-28T01:43:36.888Z,991.13
2023-12-28T01:44:08.425Z,991.13
2023-12-28T01:44:36.811Z,990.92
2023-12-28T01:44:56.872Z,990.92
2023-12-28T01:45:29.705Z,990.92
2023-12-28T01:46:00.420Z,990.82
2023-12-28T01:46:32.804Z,990.82
2023-12-28T01:47:04.548Z,991.02
2023-12-28T01:47:36.847Z,991.02
2023-12-28T01:48:08.512Z,991.02
2023-12-28T01:48:36.808Z,991.02
2023-12-28T01:48:56.841Z,991.02
2023-12-28T01:49:28.548Z,991.02
2023-12-28T01:50:02.710Z,990.92
2023-12-28T01:50:33.076Z,990.92
2023-12-28T01:51:05.172Z,991.02
2023-12-28T01:51:37.311Z,991.02
2023-12-28T01:52:08.767Z,990.82
2023-12-28T01:52:37.187Z,991.02
2023-12-28T01:52:56.634Z,991.02
2023-12-28T01:53:28.274Z,991.02
2023-12-28T01:54:00.522Z,991.02
2023-12-28T01:54:32.944Z,991.02
2023-12-28T01:55:06.415Z,990.82
2023-12-28T01:55:36.536Z,990.82
2023-12-28T01:56:09.388Z,991.02
2023-12-28T01:56:37.145Z,990.92
2023-12-28T01:56:56.605Z,990.92
2023-12-28T01:57:28.343Z,990.92
2023-12-28T01:58:00.957Z,990.82
2023-12-28T01:58:33.257Z,990.82
2023-12-28T01:59:04.552Z,991.02
2023-12-28T01:59:36.933Z,991.02
2023-12-28T02:00:10.456Z,991.13
2023-12-28T02:00:36.719Z,990.92
2023-12-28T02:00:57.098Z,990.92
2023-12-28T02:01:28.471Z,990.92
2023-12-28T02:02:00.372Z,991.02
2023-12-28T02:02:32.716Z,991.02
2023-12-28T02:03:04.651Z,991.13
2023-12-28T02:03:36.464Z,991.13
2023-12-28T02:04:08.639Z,991.02
2023-12-28T02:04:36.641Z,990.92
2023-12-28T02:04:56.491Z,990.92
2023-12-28T02:05:29.273Z,990.92
2023-12-28T02:06:01.065Z,991.02
2023-12-28T02:06:32.773Z,991.02
2023-12-28T02:07:04.646Z,991.02
2023-12-28T02:07:38.786Z,991.02
2023-12-28T02:08:10.089Z,991.02
2023-12-28T02:08:37.847Z,990.72
2023-12-28T02:08:56.489Z,990.72
2023-12-28T02:09:29.629Z,990.72
2023-12-28T02:10:01.222Z,990.92
2023-12-28T02:10:32.820Z,990.92
2023-12-28T02:11:05.003Z,991.02
2023-12-28T02:11:36.516Z,991.02
2023-12-28T02:12:08.242Z,990.92
2023-12-28T02:12:36.811Z,990.72
2023-12-28T02:12:56.357Z,990.72
2023-12-28T02:13:28.348Z,990.72
2023-12-28T02:14:00.527Z,990.72
2023-12-28T02:14:32.808Z,990.72
2023-12-28T02:15:07.435Z,990.92
2023-12-28T02:15:37.799Z,990.92
2023-12-28T02:16:09.142Z,990.92
2023-12-28T02:16:38.217Z,990.62
2023-12-28T02:16:58.166Z,990.62
2023-12-28T02:17:30.280Z,990.62
2023-12-28T02:18:02.611Z,990.92
2023-12-28T02:18:34.558Z,990.92
2023-12-28T02:19:05.885Z,991.02
2023-12-28T02:19:37.606Z,991.02
2023-12-28T02:20:12.613Z,991.02
2023-12-28T02:20:39.662Z,991.02
2023-12-28T02:21:01.189Z,991.02
2023-12-28T02:21:31.421Z,991.02
2023-12-28T02:22:03.137Z,990.92
2023-12-28T02:22:34.723Z,990.92
2023-12-28T02:23:06.502Z,991.02
2023-12-28T02:23:38.092Z,991.02
2023-12-28T02:24:09.626Z,991.02
2023-12-28T02:24:38.416Z,990.82
2023-12-28T02:24:58.733Z,990.82
2023-12-28T02:25:30.753Z,990.82
2023-12-28T02:26:01.938Z,990.72
2023-12-28T02:26:35.385Z,990.72
2023-12-28T02:27:08.871Z,991.02
2023-12-28T02:27:39.495Z,991.02
2023-12-28T02:28:11.323Z,991.13
2023-12-28T02:28:38.051Z,991.02
2023-12-28T02:28:58.435Z,991.02
2023-12-28T02:29:29.423Z,991.02
2023-12-28T02:30:06.444Z,991.13
2023-12-28T02:30:34.339Z,991.13
2023-12-28T02:31:06.813Z,991.23
2023-12-28T02:31:37.637Z,991.23
2023-12-28T02:32:09.786Z,991.02
2023-12-28T02:32:36.994Z,991.23
2023-12-28T02:32:57.482Z,991.23
2023-12-28T02:33:28.647Z,991.23
2023-12-28T02:34:00.957Z,991.33
2023-12-28T02:34:32.861Z,991.33
2023-12-28T02:35:07.173Z,991.13
2023-12-28T02:35:36.889Z,991.13
2023-12-28T02:36:08.526Z,991.23
2023-12-28T02:36:36.822Z,991.13
2023-12-28T02:36:56.704Z,991.13
2023-12-28T02:37:28.531Z,991.13
2023-12-28T02:38:01.061Z,991.23
2023-12-28T02:38:32.708Z,991.23
2023-12-28T02:39:05.411Z,991.23
2023-12-28T02:39:37.067Z,991.23
2023-12-28T02:40:09.517Z,991.13
2023-12-28T02:40:36.708Z,991.23
2023-12-28T02:40:56.943Z,991.23
2023-12-28T02:41:28.558Z,991.23
2023-12-28T02:42:00.869Z,991.33
2023-12-28T02:42:32.737Z,991.33
2023-12-28T02:43:04.695Z,991.23
2023-12-28T02:43:36.804Z,991.23
2023-12-28T02:44:08.410Z,991.23
2023-12-28T02:44:36.835Z,991.53
2023-12-28T02:44:56.388Z,991.53
2023-12-28T02:45:30.725Z,991.53
2023-12-28T02:46:00.477Z,991.43
2023-12-28T02:46:32.686Z,991.43
2023-12-28T02:47:04.551Z,991.23
2023-12-28T02:47:37.034Z,991.23
2023-12-28T02:48:08.736Z,991.23
2023-12-28T02:48:36.958Z,991.33
2023-12-28T02:48:56.687Z,991.33
2023-12-28T02:49:28.433Z,991.33
2023-12-28T02:50:01.712Z,991.23
2023-12-28T02:50:32.755Z,991.23
2023-12-28T02:51:04.501Z,991.13
2023-12-28T02:51:37.390Z,991.13
2023-12-28T02:52:08.248Z,991.23
2023-12-28T02:52:38.036Z,991.23
2023-12-28T02:52:56.445Z,991.23
2023-12-28T02:53:28.559Z,991.23
2023-12-28T02:54:00.596Z,991.23
2023-12-28T02:54:32.683Z,991.23
2023-12-28T02:55:06.962Z,991.23
2023-12-28T02:55:36.667Z,991.23
2023-12-28T02:56:08.334Z,991.43
2023-12-28T02:56:36.697Z,991.13
2023-12-28T02:56:56.533Z,991.13
2023-12-28T02:57:28.575Z,991.13
2023-12-28T02:58:01.900Z,991.13
2023-12-28T02:58:32.880Z,991.13
2023-12-28T02:59:04.608Z,991.33
2023-12-28T02:59:36.691Z,991.33
2023-12-28T03:00:10.187Z,991.23
2023-12-28T03:00:37.382Z,990.92
2023-12-28T03:00:57.523Z,990.92
2023-12-28T03:01:28.539Z,990.92
2023-12-28T03:02:00.471Z,991.33
2023-12-28T03:02:32.710Z,991.33
2023-12-28T03:03:04.591Z,991.23
2023-12-28T03:03:36.459Z,991.23
2023-12-28T03:04:08.411Z,990.92
2023-12-28T03:04:36.997Z,991.33
2023-12-28T03:04:56.718Z,991.33
2023-12-28T03:05:29.869Z,991.33
2023-12-28T03:06:00.620Z,991.02
2023-12-28T03:06:33.050Z,991.02
2023-12-28T03:07:04.478Z,991.13
2023-12-28T03:07:36.567Z,991.13
2023-12-28T03:08:08.388Z,991.02
2023-12-28T03:08:36.831Z,991.02
2023-12-28T03:08:56.614Z,991.02
2023-12-28T03:09:28.509Z,991.02
2023-12-28T03:10:02.580Z,991.02
2023-12-28T03:10:32.896Z,991.02
2023-12-28T03:11:04.471Z,991.02
2023-12-28T03:11:37.030Z,991.02
2023-12-28T03:12:08.533Z,991.13
2023-12-28T03:12:36.710Z,991.23
2023-12-28T03:12:56.526Z,991.23
2023-12-28T03:13:28.331Z,991.23
2023-12-28T03:14:00.403Z,991.02
2023-12-28T03:14:32.697Z,991.02
2023-12-28T03:15:07.656Z,990.82
2023-12-28T03:15:36.817Z,990.82
2023-12-28T03:16:10.525Z,991.02
2023-12-28T03:16:38.091Z,991.13
2023-12-28T03:16:58.091Z,991.13
2023-12-28T03:17:28.468Z,991.13
2023-12-28T03:18:00.941Z,991.23
2023-12-28T03:18:33.383Z,991.23
2023-12-28T03:19:04.537Z,991.13
2023-12-28T03:19:36.378Z,991.13
2023-12-28T03:20:09.503Z,991.13
2023-12-28T03:20:37.303Z,991.23
2023-12-28T03:20:57.367Z,991.23
2023-12-28T03:21:29.850Z,991.23
2023-12-28T03:22:00.596Z,991.33
2023-12-28T03:22:32.898Z,991.33
2023-12-28T03:23:04.732Z,991.23
2023-12-28T03:23:36.380Z,991.23
2023-12-28T03:24:08.448Z,991.23
2023-12-28T03:24:37.151Z,991.13
2023-12-28T03:24:56.748Z,991.13
2023-12-28T03:25:30.289Z,991.13
2023-12-28T03:26:01.699Z,990.92
2023-12-28T03:26:33.790Z,990.92
2023-12-28T03:27:04.797Z,991.13
2023-12-28T03:27:36.401Z,991.13
2023-12-28T03:28:08.485Z,991.02
2023-12-28T03:28:36.847Z,990.92
2023-12-28T03:28:56.389Z,990.92
2023-12-28T03:29:29.525Z,990.92
2023-12-28T03:30:02.014Z,991.02
2023-12-28T03:30:32.818Z,991.02
2023-12-28T03:31:04.691Z,991.23
2023-12-28T03:31:36.473Z,991.23
2023-12-28T03:32:08.414Z,991.23
2023-12-28T03:32:37.139Z,991.23
2023-12-28T03:32:56.551Z,991.23
2023-12-28T03:33:28.401Z,991.23
2023-12-28T03:34:00.684Z,991.13
2023-12-28T03:34:32.809Z,991.13
2023-12-28T03:35:06.165Z,991.13
2023-12-28T03:35:37.291Z,991.13
2023-12-28T03:36:08.426Z,990.82
2023-12-28T03:36:38.033Z,991.13
2023-12-28T03:36:56.987Z,991.13
2023-12-28T03:37:28.231Z,991.13
2023-12-28T03:38:00.958Z,991.02
2023-12-28T03:38:32.864Z,991.02
2023-12-28T03:39:04.492Z,991.02
2023-12-28T03:39:37.283Z,991.02
2023-12-28T03:40:09.562Z,990.82
2023-12-28T03:40:36.716Z,990.72
2023-12-28T03:40:57.061Z,990.72
2023-12-28T03:41:28.505Z,990.72
2023-12-28T03:42:00.836Z,991.23
2023-12-28T03:42:32.972Z,991.23
2023-12-28T03:43:04.550Z,991.13
2023-12-28T03:43:36.473Z,991.13
2023-12-28T03:44:08.271Z,990.92
2023-12-28T03:44:37.251Z,990.92
2023-12-28T03:44:56.460Z,990.92
2023-12-28T03:45:29.825Z,990.92
2023-12-28T03:46:00.699Z,991.13
2023-12-28T03:46:32.689Z,991.13
2023-12-28T03:47:04.464Z,991.02
2023-12-28T03:47:37.164Z,991.02
2023-12-28T03:48:08.394Z,991.13
2023-12-28T03:48:37.426Z,991.13
2023-12-28T03:48:56.681Z,991.13
2023-12-28T03:49:28.624Z,991.13
2023-12-28T03:50:01.883Z,991.13
2023-12-28T03:50:32.908Z,991.13
2023-12-28T03:51:04.689Z,991.13
2023-12-28T03:51:36.975Z,991.13
2023-12-28T03:52:08.325Z,990.92
2023-12-28T03:52:36.937Z,991.02
2023-12-28T03:52:56.380Z,991.02
2023-12-28T03:53:28.199Z,991.02
2023-12-28T03:54:01.467Z,991.02
2023-12-28T03:54:32.827Z,991.02
2023-12-28T03:55:06.849Z,990.72
2023-12-28T03:55:37.159Z,990.72
2023-12-28T03:56:08.616Z,990.82
2023-12-28T03:56:36.884Z,990.82
2023-12-28T03:56:56.509Z,990.82
2023-12-28T03:57:28.351Z,990.82
2023-12-28T03:58:00.922Z,990.82
2023-12-28T03:58:33.048Z,990.82
2023-12-28T03:59:04.512Z,990.42
2023-12-28T03:59:36.364Z,990.42
2023-12-28T04:00:11.001Z,990.42
2023-12-28T04:00:37.352Z,990.82
2023-12-28T04:00:57.194Z,990.82
2023-12-28T04:01:28.374Z,990.82
2023-12-28T04:02:00.864Z,990.52
2023-12-28T04:02:32.790Z,990.52
2023-12-28T04:03:04.608Z,990.42
2023-12-28T04:03:36.638Z,990.42
2023-12-28T04:04:08.724Z,990.62
2023-12-28T04:04:36.805Z,990.62
2023-12-28T04:04:56.340Z,990.62
2023-12-28T04:05:28.939Z,990.62
2023-12-28T04:06:00.457Z,990.62
2023-12-28T04:06:32.740Z,990.62
2023-12-28T04:07:04.495Z,990.62
2023-12-28T04:07:36.510Z,990.62
2023-12-28T04:08:08.424Z,990.52
2023-12-28T04:08:37.008Z,990.72
2023-12-28T04:08:57.063Z,990.72
2023-12-28T04:09:28.685Z,990.72
2023-12-28T04:10:01.708Z,990.62
2023-12-28T04:10:32.895Z,990.62
2023-12-28T04:11:06.273Z,990.52
2023-12-28T04:11:36.417Z,990.52
2023-12-28T04:12:08.244Z,990.82
2023-12-28T04:12:36.986Z,991.02
2023-12-28T04:12:56.518Z,991.02
2023-12-28T04:13:28.619Z,991.02
2023-12-28T04:14:00.817Z,990.82
2023-12-28T04:14:32.992Z,990.82
2023-12-28T04:15:07.025Z,990.82
2023-12-28T04:15:36.672Z,990.82
2023-12-28T04:16:08.338Z,990.92
2023-12-28T04:16:36.724Z,990.92
2023-12-28T04:16:56.522Z,990.92
2023-12-28T04:17:28.356Z,990.92
2023-12-28T04:18:01.323Z,990.92
2023-12-28T04:18:34.272Z,990.92
2023-12-28T04:19:04.627Z,991.02
2023-12-28T04:19:37.249Z,991.02
2023-12-28T04:20:09.392Z,991.13
2023-12-28T04:20:37.764Z,991.33
2023-12-28T04:20:57.114Z,991.33
2023-12-28T04:21:28.427Z,991.33
2023-12-28T04:22:02.096Z,991.23
2023-12-28T04:22:32.674Z,991.23
2023-12-28T04:23:04.481Z,991.23
2023-12-28T04:23:36.654Z,991.23
2023-12-28T04:24:08.466Z,991.13
2023-12-28T04:24:38.192Z,991.23
2023-12-28T04:24:57.891Z,991.23
2023-12-28T04:25:30.344Z,991.23
2023-12-28T04:26:01.664Z,991.23
2023-12-28T04:26:32.751Z,991.23
2023-12-28T04:27:04.448Z,991.13
2023-12-28T04:27:37.378Z,991.13
2023-12-28T04:28:08.649Z,991.23
2023-12-28T04:28:36.983Z,991.33
2023-12-28T04:28:56.511Z,991.33
2023-12-28T04:29:28.422Z,991.33
2023-12-28T04:30:02.062Z,991.23
2023-12-28T04:30:33.080Z,991.23
2023-12-28T04:31:04.635Z,991.23
2023-12-28T04:31:37.029Z,991.23
2023-12-28T04:32:08.494Z,991.23
2023-12-28T04:32:37.030Z,991.13
2023-12-28T04:32:57.220Z,991.13
2023-12-28T04:33:28.624Z,991.13
2023-12-28T04:34:01.316Z,991.33
2023-12-28T04:34:32.586Z,991.33
2023-12-28T04:35:06.436Z,991.33
2023-12-28T04:35:36.592Z,991.33
2023-12-28T04:36:08.413Z,991.13
2023-12-28T04:36:39.753Z,991.23
2023-12-28T04:36:57.923Z,991.23
2023-12-28T04:37:29.414Z,991.23
2023-12-28T04:38:00.950Z,991.23
2023-12-28T04:38:33.104Z,991.23
2023-12-28T04:39:04.573Z,990.92
2023-12-28T04:39:36.425Z,990.92
2023-12-28T04:40:10.756Z,991.02
2023-12-28T04:40:36.645Z,990.92
2023-12-28T04:40:57.339Z,990.92
2023-12-28T04:41:28.402Z,990.92
2023-12-28T04:42:00.656Z,991.23
2023-12-28T04:42:32.985Z,991.23
2023-12-28T04:43:04.417Z,991.02
2023-12-28T04:43:37.480Z,991.02
2023-12-28T04:44:08.300Z,991.13
2023-12-28T04:44:37.073Z,991.02
2023-12-28T04:44:56.595Z,991.02
2023-12-28T04:45:29.396Z,991.02
2023-12-28T04:46:00.551Z,991.02
2023-12-28T04:46:32.953Z,991.02
2023-12-28T04:47:04.459Z,990.92
2023-12-28T04:47:36.561Z,990.92
2023-12-28T04:48:08.448Z,991.02
2023-12-28T04:48:36.944Z,991.02
2023-12-28T04:48:56.736Z,991.02
2023-12-28T04:49:28.516Z,991.02
2023-12-28T04:50:02.265Z,991.02
2023-12-28T04:50:32.788Z,991.02
2023-12-28T04:51:04.515Z,991.23
2023-12-28T04:51:36.751Z,991.23
2023-12-28T04:52:08.606Z,990.82
2023-12-28T04:52:36.806Z,991.23
2023-12-28T04:52:56.477Z,991.23
2023-12-28T04:53:28.502Z,991.23
2023-12-28T04:54:01.032Z,991.33
2023-12-28T04:54:33.737Z,991.33
2023-12-28T04:55:07.768Z,991.23
2023-12-28T04:55:38.307Z,991.23
2023-12-28T04:56:09.398Z,991.33
2023-12-28T04:56:36.987Z,991.13
2023-12-28T04:56:56.468Z,991.13
2023-12-28T04:57:28.329Z,991.13
2023-12-28T04:58:01.417Z,991.02
2023-12-28T04:58:33.434Z,991.02
2023-12-28T04:59:04.443Z,991.33
2023-12-28T04:59:37.571Z,991.33
2023-12-28T05:00:10.284Z,991.23
2023-12-28T05:00:37.873Z,991.02
2023-12-28T05:00:57.411Z,991.02
2023-12-28T05:01:28.414Z,991.02
2023-12-28T05:02:00.657Z,991.43
2023-12-28T05:02:32.824Z,991.43
2023-12-28T05:03:04.496Z,991.43
2023-12-28T05:03:36.398Z,991.43
2023-12-28T05:04:08.449Z,991.43
2023-12-28T05:04:36.824Z,991.33
2023-12-28T05:04:56.722Z,991.33
2023-12-28T05:05:29.466Z,991.33
2023-12-28T05:06:00.691Z,991.33
2023-12-28T05:06:33.234Z,991.33
2023-12-28T05:07:04.623Z,991.43
2023-12-28T05:07:36.786Z,991.43
2023-12-28T05:08:08.360Z,991.43
2023-12-28T05:08:37.367Z,991.53
2023-12-28T05:08:56.640Z,991.53
2023-12-28T05:09:28.652Z,991.53
2023-12-28T05:10:01.413Z,991.23
2023-12-28T05:10:32.806Z,991.23
2023-12-28T05:11:04.531Z,991.43
2023-12-28T05:11:36.277Z,991.43
2023-12-28T05:12:08.362Z,991.43
2023-12-28T05:12:43.750Z,991.23
2023-12-28T05:13:28.770Z,991.23
2023-12-28T05:14:00.708Z,991.43
2023-12-28T05:14:33.150Z,991.43
2023-12-28T05:15:07.149Z,991.43
2023-12-28T05:15:37.047Z,991.43
2023-12-28T05:16:08.355Z,991.43
2023-12-28T05:16:36.812Z,991.53
2023-12-28T05:16:56.815Z,991.53
2023-12-28T05:17:28.740Z,991.53
2023-12-28T05:18:01.858Z,991.43
2023-12-28T05:18:33.208Z,991.43
2023-12-28T05:19:04.747Z,991.53
2023-12-28T05:19:36.566Z,991.53
2023-12-28T05:20:09.715Z,991.53
2023-12-28T05:20:38.921Z,991.63
2023-12-28T05:20:58.353Z,991.63
2023-12-28T05:21:28.529Z,991.63
2023-12-28T05:22:00.688Z,991.63
2023-12-28T05:22:32.869Z,991.63
2023-12-28T05:23:04.656Z,991.84
2023-12-28T05:23:36.461Z,991.84
2023-12-28T05:24:09.219Z,991.53
2023-12-28T05:24:36.987Z,991.74
2023-12-28T05:24:56.595Z,991.74
2023-12-28T05:25:30.377Z,991.74
2023-12-28T05:26:00.477Z,991.53
2023-12-28T05:26:32.820Z,991.53
2023-12-28T05:27:04.466Z,991.63
2023-12-28T05:27:37.121Z,991.63
2023-12-28T05:28:08.419Z,991.53
2023-12-28T05:28:36.862Z,991.43
2023-12-28T05:28:56.597Z,991.43
2023-12-28T05:29:28.823Z,991.43
2023-12-28T05:30:02.066Z,991.33
2023-12-28T05:30:33.069Z,991.33
2023-12-28T05:31:04.598Z,991.53
2023-12-28T05:31:38.377Z,991.53
2023-12-28T05:32:09.530Z,991.43
2023-12-28T05:32:36.850Z,991.13
2023-12-28T05:32:56.706Z,991.13
2023-12-28T05:33:28.846Z,991.13
2023-12-28T05:34:00.770Z,991.43
2023-12-28T05:34:33.202Z,991.43
2023-12-28T05:35:06.416Z,991.43
2023-12-28T05:35:37.000Z,991.43
2023-12-28T05:36:10.872Z,991.63
2023-12-28T05:36:36.770Z,991.53
2023-12-28T05:36:56.433Z,991.53
2023-12-28T05:37:28.443Z,991.53
2023-12-28T05:38:01.177Z,991.53
2023-12-28T05:38:33.129Z,991.53
2023-12-28T05:39:04.597Z,991.43
2023-12-28T05:39:36.854Z,991.43
2023-12-28T05:40:09.620Z,991.33
2023-12-28T05:40:36.967Z,991.43
2023-12-28T05:40:57.055Z,991.43
2023-12-28T05:41:28.578Z,991.43
2023-12-28T05:42:00.851Z,991.63
2023-12-28T05:42:34.044Z,991.63
2023-12-28T05:43:04.505Z,991.84
2023-12-28T05:43:37.462Z,991.84
2023-12-28T05:44:08.652Z,991.74
2023-12-28T05:44:37.341Z,991.74
2023-12-28T05:44:56.465Z,991.74
2023-12-28T05:45:29.537Z,991.74
2023-12-28T05:46:01.057Z,991.74
2023-12-28T05:46:32.752Z,991.74
2023-12-28T05:47:04.539Z,992.04
2023-12-28T05:47:36.439Z,992.04
2023-12-28T05:48:08.498Z,991.94
2023-12-28T05:48:37.192Z,992.21
2023-12-28T05:48:56.410Z,992.21
2023-12-28T05:49:28.440Z,992.21
2023-12-28T05:50:01.500Z,992.04
2023-12-28T05:50:32.826Z,992.04
2023-12-28T05:51:04.468Z,992.11
2023-12-28T05:51:36.892Z,992.11
2023-12-28T05:52:08.658Z,992.31
2023-12-28T05:52:36.991Z,992.11
2023-12-28T05:52:56.435Z,992.11
2023-12-28T05:53:28.776Z,992.11
2023-12-28T05:54:00.467Z,992.04
2023-12-28T05:54:32.890Z,992.04
2023-12-28T05:55:06.516Z,991.84
2023-12-28T05:55:36.307Z,991.84
2023-12-28T05:56:08.329Z,991.74
2023-12-28T05:56:36.739Z,991.84
2023-12-28T05:56:57.372Z,991.84
2023-12-28T05:57:29.607Z,991.84
2023-12-28T05:58:01.837Z,991.74
2023-12-28T05:58:32.756Z,991.74
2023-12-28T05:59:04.432Z,991.94
2023-12-28T05:59:36.894Z,991.94
2023-12-28T06:00:10.300Z,992.04
2023-12-28T06:00:36.981Z,992.04
2023-12-28T06:00:58.011Z,992.04
2023-12-28T06:01:28.497Z,992.04
2023-12-28T06:02:01.145Z,992.04
2023-12-28T06:02:32.774Z,992.04
2023-12-28T06:03:04.697Z,992.11
2023-12-28T06:03:37.471Z,992.11
2023-12-28T06:04:08.508Z,992.04
2023-12-28T06:04:37.283Z,992.11
2023-12-28T06:04:56.743Z,992.11
2023-12-28T06:05:29.329Z,992.11
2023-12-28T06:06:00.621Z,992.31
2023-12-28T06:06:33.099Z,992.31
2023-12-28T06:07:04.447Z,992.31
2023-12-28T06:07:36.308Z,992.31
2023-12-28T06:08:09.235Z,992.31
2023-12-28T06:08:36.908Z,992.41
2023-12-28T06:08:56.712Z,992.41
2023-12-28T06:09:28.592Z,992.41
2023-12-28T06:10:01.587Z,992.21
2023-12-28T06:10:33.104Z,992.21
2023-12-28T06:11:04.449Z,992.41
2023-12-28T06:11:36.332Z,992.41
2023-12-28T06:12:08.599Z,992.31
2023-12-28T06:12:36.762Z,992.31
2023-12-28T06:12:56.710Z,992.31
2023-12-28T06:13:28.628Z,992.31
2023-12-28T06:14:00.773Z,992.31
2023-12-28T06:14:33.176Z,992.31